createdAt,value
2022-08-29T00:00:28.142Z,20.30
2022-08-29T00:02:00.517Z,20.26
2022-08-29T00:03:33.956Z,20.23
2022-08-29T00:05:09.017Z,20.21
2022-08-29T00:06:42.900Z,20.15
2022-08-29T00:08:16.042Z,20.13
2022-08-29T00:09:50.695Z,20.12
2022-08-29T00:11:23.997Z,20.07
2022-08-29T00:12:57.803Z,20.07
2022-08-29T00:14:31.340Z,20.06
2022-08-29T00:16:05.045Z,20.02
2022-08-29T00:17:38.322Z,20.02
2022-08-29T00:19:11.842Z,20.06
2022-08-29T00:20:46.652Z,20.00
2022-08-29T00:22:18.887Z,19.94
2022-08-29T00:23:52.176Z,19.90
2022-08-29T00:25:28.029Z,19.94
2022-08-29T00:27:00.524Z,19.96
2022-08-29T00:28:33.992Z,19.91
2022-08-29T00:30:09.703Z,19.92
2022-08-29T00:31:43.824Z,19.94
2022-08-29T00:33:18.271Z,19.96
2022-08-29T00:34:51.525Z,19.99
2022-08-29T00:36:24.930Z,19.92
2022-08-29T00:37:58.268Z,19.93
2022-08-29T00:39:32.959Z,19.89
2022-08-29T00:41:08.017Z,19.89
2022-08-29T00:42:40.770Z,19.80
2022-08-29T00:44:14.643Z,19.77
2022-08-29T00:45:53.588Z,19.70
2022-08-29T00:47:33.062Z,19.69
2022-08-29T00:49:10.140Z,19.69
2022-08-29T00:50:48.164Z,19.65
2022-08-29T00:52:32.746Z,19.63
2022-08-29T00:54:10.939Z,19.61
2022-08-29T00:55:50.429Z,19.61
2022-08-29T00:57:28.132Z,19.60
2022-08-29T00:59:06.812Z,19.58
2022-08-29T01:00:39.375Z,19.53
2022-08-29T01:02:12.980Z,19.52
2022-08-29T01:03:45.798Z,19.53
2022-08-29T01:05:20.194Z,19.55
2022-08-29T01:06:55.100Z,19.52
2022-08-29T01:08:28.934Z,19.51
2022-08-29T01:10:01.285Z,19.54
2022-08-29T01:12:04.190Z,19.55
2022-08-29T01:13:45.415Z,19.51
2022-08-29T01:15:21.122Z,19.55
2022-08-29T01:17:00.259Z,19.56
2022-08-29T01:18:36.474Z,19.57
2022-08-29T01:20:19.520Z,19.55
2022-08-29T01:22:00.144Z,19.52
2022-08-29T01:23:40.600Z,19.45
2022-08-29T01:25:18.354Z,19.49
2022-08-29T01:26:51.320Z,19.53
2022-08-29T01:28:29.032Z,19.53
2022-08-29T01:30:01.248Z,19.51
2022-08-29T01:31:56.247Z,19.50
2022-08-29T01:33:39.139Z,19.38
2022-08-29T01:35:12.665Z,19.37
2022-08-29T01:36:50.433Z,19.36
2022-08-29T01:38:28.681Z,19.39
2022-08-29T01:40:02.308Z,19.37
2022-08-29T01:41:37.514Z,19.42
2022-08-29T01:43:11.013Z,19.40
2022-08-29T01:44:50.288Z,19.37
2022-08-29T01:46:28.952Z,19.28
2022-08-29T01:48:03.670Z,19.27
2022-08-29T01:49:40.846Z,19.25
2022-08-29T01:51:15.724Z,19.19
2022-08-29T01:52:49.053Z,19.16
2022-08-29T01:54:21.984Z,19.09
2022-08-29T01:55:57.095Z,19.10
2022-08-29T01:57:31.813Z,19.12
2022-08-29T01:59:07.332Z,19.11
2022-08-29T02:00:41.089Z,19.10
2022-08-29T02:02:18.422Z,19.09
2022-08-29T02:03:52.015Z,19.14
2022-08-29T02:05:25.405Z,19.12
2022-08-29T02:06:59.163Z,19.13
2022-08-29T02:08:31.627Z,19.14
2022-08-29T02:10:06.442Z,19.17
2022-08-29T02:11:40.165Z,19.16
2022-08-29T02:13:14.733Z,19.15
2022-08-29T02:14:48.478Z,19.10
2022-08-29T02:16:22.136Z,19.07
2022-08-29T02:17:55.521Z,19.03
2022-08-29T02:19:27.925Z,18.97
2022-08-29T02:21:01.828Z,18.93
2022-08-29T02:22:35.987Z,18.93
2022-08-29T02:24:24.449Z,18.85
2022-08-29T02:25:57.519Z,18.78
2022-08-29T02:27:32.114Z,18.79
2022-08-29T02:29:06.745Z,18.77
2022-08-29T02:30:39.291Z,18.77
2022-08-29T02:32:15.517Z,18.78
2022-08-29T02:33:49.995Z,18.75
2022-08-29T02:35:24.319Z,18.80
2022-08-29T02:36:59.459Z,18.79
2022-08-29T02:38:33.431Z,18.72
2022-08-29T02:40:07.982Z,18.66
2022-08-29T02:41:44.379Z,18.59
2022-08-29T02:43:19.564Z,18.51
2022-08-29T02:44:54.575Z,18.44
2022-08-29T02:46:27.316Z,18.39
2022-08-29T02:48:00.975Z,18.32
2022-08-29T02:49:34.626Z,18.35
2022-08-29T02:51:07.852Z,18.40
2022-08-29T02:52:42.036Z,18.34
2022-08-29T02:54:15.229Z,18.47
2022-08-29T02:55:49.971Z,18.48
2022-08-29T02:57:23.926Z,18.49
2022-08-29T02:58:58.922Z,18.50
2022-08-29T03:00:35.933Z,18.46
2022-08-29T03:02:09.524Z,18.50
2022-08-29T03:03:43.031Z,18.44
2022-08-29T03:05:16.913Z,18.38
2022-08-29T03:06:50.481Z,18.35
2022-08-29T03:08:23.929Z,18.36
2022-08-29T03:09:57.128Z,18.36
2022-08-29T03:11:31.191Z,18.37
2022-08-29T03:13:04.194Z,18.37
2022-08-29T03:14:38.269Z,18.36
2022-08-29T03:16:13.303Z,18.36
2022-08-29T03:17:47.596Z,18.39
2022-08-29T03:19:20.889Z,18.44
2022-08-29T03:20:54.265Z,18.44
2022-08-29T03:22:28.557Z,18.41
2022-08-29T03:24:01.941Z,18.43
2022-08-29T03:25:36.110Z,18.44
2022-08-29T03:27:09.905Z,18.43
2022-08-29T03:28:43.142Z,18.41
2022-08-29T03:30:18.130Z,18.38
2022-08-29T03:31:52.760Z,18.29
2022-08-29T03:33:26.173Z,18.21
2022-08-29T03:34:59.683Z,18.14
2022-08-29T03:36:33.909Z,18.10
2022-08-29T03:38:06.528Z,18.11
2022-08-29T03:39:42.893Z,18.08
2022-08-29T03:41:22.339Z,18.13
2022-08-29T03:42:57.388Z,18.11
2022-08-29T03:44:32.775Z,18.03
2022-08-29T03:46:06.354Z,17.96
2022-08-29T03:47:40.981Z,17.87
2022-08-29T03:49:15.645Z,17.96
2022-08-29T03:50:53.223Z,18.01
2022-08-29T03:52:29.943Z,18.08
2022-08-29T03:54:03.279Z,18.13
2022-08-29T03:55:36.652Z,18.19
2022-08-29T03:57:10.494Z,18.21
2022-08-29T03:58:44.199Z,18.22
2022-08-29T04:00:20.327Z,18.21
2022-08-29T04:01:52.713Z,18.27
2022-08-29T04:03:31.178Z,18.29
2022-08-29T04:05:08.316Z,18.29
2022-08-29T04:06:41.772Z,18.23
2022-08-29T04:08:15.239Z,18.24
2022-08-29T04:09:48.497Z,18.19
2022-08-29T04:11:24.213Z,18.18
2022-08-29T04:12:57.959Z,18.21
2022-08-29T04:14:30.474Z,18.28
2022-08-29T04:16:09.820Z,18.32
2022-08-29T04:17:52.852Z,18.36
2022-08-29T04:19:28.072Z,18.41
2022-08-29T04:21:03.673Z,18.50
2022-08-29T04:22:38.690Z,18.59
2022-08-29T04:24:12.222Z,18.66
2022-08-29T04:25:45.721Z,18.73
2022-08-29T04:27:19.140Z,18.79
2022-08-29T04:28:53.174Z,18.81
2022-08-29T04:30:28.282Z,18.83
2022-08-29T04:32:00.498Z,18.85
2022-08-29T04:33:33.944Z,18.89
2022-08-29T04:35:10.361Z,18.90
2022-08-29T04:36:45.463Z,18.94
2022-08-29T04:38:18.840Z,19.00
2022-08-29T04:39:52.522Z,19.03
2022-08-29T04:41:25.750Z,19.07
2022-08-29T04:42:59.762Z,19.13
2022-08-29T04:44:34.609Z,19.14
2022-08-29T04:46:08.150Z,19.16
2022-08-29T04:47:49.667Z,19.19
2022-08-29T04:49:22.048Z,19.22
2022-08-29T04:50:57.791Z,19.34
2022-08-29T04:52:31.113Z,19.41
2022-08-29T04:54:06.683Z,19.43
2022-08-29T04:55:40.154Z,19.50
2022-08-29T04:57:13.698Z,19.76
2022-08-29T04:58:47.323Z,19.99
2022-08-29T05:00:23.706Z,20.23
2022-08-29T05:01:57.472Z,20.42
2022-08-29T05:03:31.523Z,20.58
2022-08-29T05:05:05.446Z,20.77
2022-08-29T05:06:39.072Z,20.97
2022-08-29T05:08:12.320Z,21.15
2022-08-29T05:09:45.565Z,21.31
2022-08-29T05:11:22.847Z,21.48
2022-08-29T05:12:56.399Z,21.54
2022-08-29T05:14:29.925Z,21.67
2022-08-29T05:16:06.707Z,21.72
2022-08-29T05:17:40.179Z,21.75
2022-08-29T05:19:16.008Z,21.78
2022-08-29T05:20:50.824Z,21.85
2022-08-29T05:22:25.504Z,22.05
2022-08-29T05:23:59.922Z,22.05
2022-08-29T05:25:33.170Z,22.15
2022-08-29T05:27:10.018Z,22.22
2022-08-29T05:28:43.230Z,22.28
2022-08-29T05:30:34.034Z,22.22
2022-08-29T05:32:08.683Z,22.42
2022-08-29T05:33:42.580Z,22.45
2022-08-29T05:35:15.826Z,22.46
2022-08-29T05:36:49.181Z,22.51
2022-08-29T05:38:23.761Z,22.55
2022-08-29T05:39:57.427Z,22.72
2022-08-29T05:41:29.760Z,22.79
2022-08-29T05:43:13.364Z,22.89
2022-08-29T05:44:46.849Z,23.05
2022-08-29T05:46:20.389Z,23.03
2022-08-29T05:47:56.399Z,23.10
2022-08-29T05:49:29.819Z,23.17
2022-08-29T05:51:03.515Z,23.42
2022-08-29T05:52:36.832Z,23.63
2022-08-29T05:54:12.713Z,23.86
2022-08-29T05:55:46.425Z,24.01
2022-08-29T05:57:23.187Z,24.17
2022-08-29T05:58:57.382Z,24.39
2022-08-29T06:00:30.625Z,24.69
2022-08-29T06:02:04.712Z,24.96
2022-08-29T06:03:38.004Z,25.21
2022-08-29T06:05:11.856Z,25.51
2022-08-29T06:06:45.109Z,25.86
2022-08-29T06:08:17.469Z,26.22
2022-08-29T06:09:53.124Z,26.61
2022-08-29T06:11:29.402Z,27.04
2022-08-29T06:13:02.718Z,27.55
2022-08-29T06:14:36.270Z,27.90
2022-08-29T06:16:12.680Z,28.08
2022-08-29T06:17:46.389Z,28.10
2022-08-29T06:19:19.708Z,28.04
2022-08-29T06:20:53.208Z,27.94
2022-08-29T06:22:26.560Z,27.94
2022-08-29T06:24:00.041Z,28.16
2022-08-29T06:25:39.339Z,28.08
2022-08-29T06:27:14.352Z,28.13
2022-08-29T06:28:48.358Z,28.51
2022-08-29T06:30:22.126Z,28.98
2022-08-29T06:31:57.561Z,29.15
2022-08-29T06:33:31.023Z,28.89
2022-08-29T06:35:05.551Z,28.65
2022-08-29T06:36:44.618Z,28.51
2022-08-29T06:38:18.409Z,28.14
2022-08-29T06:39:52.453Z,28.36
2022-08-29T06:41:27.512Z,28.25
2022-08-29T06:43:05.755Z,28.47
2022-08-29T06:44:42.547Z,28.78
2022-08-29T06:46:23.681Z,29.17
2022-08-29T06:47:57.243Z,29.65
2022-08-29T06:49:32.389Z,29.82
2022-08-29T06:51:05.892Z,30.22
2022-08-29T06:52:39.414Z,30.10
2022-08-29T06:54:13.939Z,30.35
2022-08-29T06:55:48.014Z,30.06
2022-08-29T06:57:23.080Z,29.90
2022-08-29T06:58:56.629Z,30.07
2022-08-29T07:00:29.902Z,30.41
2022-08-29T07:02:03.450Z,30.21
2022-08-29T07:03:37.243Z,29.93
2022-08-29T07:05:10.983Z,29.76
2022-08-29T07:06:45.582Z,29.57
2022-08-29T07:08:19.069Z,29.59
2022-08-29T07:09:52.554Z,29.62
2022-08-29T07:11:27.055Z,29.61
2022-08-29T07:13:01.831Z,29.51
2022-08-29T07:14:35.310Z,29.57
2022-08-29T07:16:10.926Z,29.59
2022-08-29T07:17:44.462Z,29.63
2022-08-29T07:19:17.837Z,29.74
2022-08-29T07:20:51.515Z,29.80
2022-08-29T07:22:26.659Z,30.02
2022-08-29T07:24:00.723Z,30.03
2022-08-29T07:25:34.740Z,29.84
2022-08-29T07:27:09.396Z,29.66
2022-08-29T07:28:47.190Z,29.43
2022-08-29T07:30:21.125Z,29.30
2022-08-29T07:31:54.648Z,29.09
2022-08-29T07:33:27.969Z,29.03
2022-08-29T07:35:01.539Z,29.01
2022-08-29T07:36:35.570Z,28.86
2022-08-29T07:38:08.951Z,28.95
2022-08-29T07:39:42.285Z,28.98
2022-08-29T07:41:14.959Z,28.93
2022-08-29T07:42:48.480Z,28.86
2022-08-29T07:44:23.380Z,28.81
2022-08-29T07:45:55.969Z,28.82
2022-08-29T07:47:29.416Z,28.80
2022-08-29T07:49:02.768Z,28.94
2022-08-29T07:50:36.099Z,29.21
2022-08-29T07:52:09.446Z,29.74
2022-08-29T07:53:43.209Z,29.96
2022-08-29T07:55:16.734Z,30.28
2022-08-29T07:56:53.922Z,30.79
2022-08-29T07:58:27.246Z,31.12
2022-08-29T08:00:02.476Z,31.24
2022-08-29T08:01:45.972Z,31.22
2022-08-29T08:03:21.814Z,31.22
2022-08-29T08:04:55.091Z,31.02
2022-08-29T08:06:28.948Z,30.85
2022-08-29T08:08:08.903Z,30.74
2022-08-29T08:09:48.642Z,30.70
2022-08-29T08:11:23.714Z,30.61
2022-08-29T08:12:57.076Z,30.49
2022-08-29T08:14:34.741Z,30.17
2022-08-29T08:16:19.002Z,30.38
2022-08-29T08:17:52.457Z,30.66
2022-08-29T08:19:26.071Z,30.82
2022-08-29T08:20:59.760Z,31.42
2022-08-29T08:22:33.269Z,32.16
2022-08-29T08:24:07.154Z,32.47
2022-08-29T08:25:41.602Z,33.04
2022-08-29T08:27:15.388Z,33.35
2022-08-29T08:28:49.081Z,34.03
2022-08-29T08:30:23.047Z,34.46
2022-08-29T08:32:00.598Z,34.78
2022-08-29T08:33:35.188Z,35.09
2022-08-29T08:35:10.495Z,35.50
2022-08-29T08:36:45.656Z,35.33
2022-08-29T08:38:43.861Z,35.74
2022-08-29T08:40:23.242Z,35.66
2022-08-29T08:42:03.365Z,35.71
2022-08-29T08:43:50.735Z,36.00
2022-08-29T08:45:29.829Z,36.16
2022-08-29T08:47:08.468Z,36.47
2022-08-29T08:48:42.547Z,35.91
2022-08-29T08:50:22.544Z,36.00
2022-08-29T08:52:00.677Z,35.94
2022-08-29T08:53:37.414Z,36.14
2022-08-29T08:55:22.100Z,36.16
2022-08-29T08:57:05.499Z,36.35
2022-08-29T08:58:50.182Z,36.61
2022-08-29T09:00:23.771Z,36.51
2022-08-29T09:02:06.613Z,36.76
2022-08-29T09:04:09.231Z,36.36
2022-08-29T09:05:57.983Z,36.00
2022-08-29T09:07:46.663Z,35.59
2022-08-29T09:09:31.760Z,35.69
2022-08-29T09:11:16.433Z,35.20
2022-08-29T09:13:00.005Z,34.90
2022-08-29T09:14:50.359Z,34.75
2022-08-29T09:16:28.225Z,34.57
2022-08-29T09:18:06.813Z,34.21
2022-08-29T09:19:41.994Z,33.89
2022-08-29T09:21:39.944Z,33.84
2022-08-29T09:23:21.127Z,33.75
2022-08-29T09:24:59.330Z,33.58
2022-08-29T09:26:33.301Z,33.40
2022-08-29T09:28:08.155Z,33.74
2022-08-29T09:29:42.012Z,34.08
2022-08-29T09:31:19.652Z,34.35
2022-08-29T09:32:55.989Z,34.26
2022-08-29T09:34:57.048Z,33.74
2022-08-29T09:36:43.500Z,33.65
2022-08-29T09:38:24.250Z,33.76
2022-08-29T09:40:03.873Z,33.90
2022-08-29T09:41:37.476Z,34.04
2022-08-29T09:43:19.137Z,33.98
2022-08-29T09:44:56.954Z,34.06
2022-08-29T09:46:30.203Z,34.06
2022-08-29T09:48:11.462Z,34.25
2022-08-29T09:50:04.008Z,34.14
2022-08-29T09:51:41.308Z,33.94
2022-08-29T09:53:25.432Z,33.89
2022-08-29T09:54:59.070Z,33.79
2022-08-29T09:56:32.581Z,33.76
2022-08-29T09:58:08.109Z,33.79
2022-08-29T09:59:45.312Z,33.67
2022-08-29T10:01:26.221Z,33.76
2022-08-29T10:03:03.913Z,33.67
2022-08-29T10:04:39.700Z,33.28
2022-08-29T10:06:17.460Z,33.07
2022-08-29T10:07:54.649Z,33.06
2022-08-29T10:09:29.928Z,33.21
2022-08-29T10:11:05.183Z,33.01
2022-08-29T10:12:49.057Z,32.95
2022-08-29T10:14:35.799Z,33.16
2022-08-29T10:16:18.826Z,33.17
2022-08-29T10:18:17.892Z,33.09
2022-08-29T10:19:52.608Z,33.04
2022-08-29T10:21:36.512Z,33.17
2022-08-29T10:23:20.792Z,33.27
2022-08-29T10:25:03.978Z,33.29
2022-08-29T10:26:47.194Z,33.38
2022-08-29T10:28:31.514Z,33.13
2022-08-29T10:30:11.159Z,33.28
2022-08-29T10:31:51.903Z,33.59
2022-08-29T10:33:39.095Z,33.67
2022-08-29T10:35:18.336Z,33.69
2022-08-29T10:36:58.458Z,33.74
2022-08-29T10:38:46.835Z,33.68
2022-08-29T10:40:26.970Z,33.66
2022-08-29T10:42:06.025Z,33.77
2022-08-29T10:43:42.557Z,33.66
2022-08-29T10:45:21.364Z,33.70
2022-08-29T10:47:15.552Z,33.66
2022-08-29T10:49:00.210Z,33.71
2022-08-29T10:50:44.420Z,33.72
2022-08-29T10:52:26.831Z,33.79
2022-08-29T10:54:09.465Z,33.98
2022-08-29T10:55:54.658Z,34.08
2022-08-29T10:57:42.498Z,33.98
2022-08-29T10:59:23.698Z,33.95
2022-08-29T11:01:08.432Z,33.88
2022-08-29T11:02:48.473Z,33.98
2022-08-29T11:04:28.285Z,34.02
2022-08-29T11:06:08.009Z,34.03
2022-08-29T11:07:47.090Z,34.10
2022-08-29T11:09:26.778Z,34.24
2022-08-29T11:11:00.109Z,34.33
2022-08-29T11:12:45.192Z,34.31
2022-08-29T11:14:25.841Z,34.36
2022-08-29T11:16:08.112Z,34.59
2022-08-29T11:17:44.274Z,34.66
2022-08-29T11:19:23.821Z,34.61
2022-08-29T11:21:01.866Z,34.64
2022-08-29T11:22:41.237Z,34.54
2022-08-29T11:24:17.160Z,34.60
2022-08-29T11:25:52.135Z,34.49
2022-08-29T11:27:33.382Z,34.44
2022-08-29T11:29:17.415Z,34.50
2022-08-29T11:30:55.831Z,34.45
2022-08-29T11:32:37.320Z,34.34
2022-08-29T11:34:22.206Z,34.23
2022-08-29T11:36:15.195Z,34.23
2022-08-29T11:38:14.267Z,34.10
2022-08-29T11:39:57.023Z,34.01
2022-08-29T11:41:34.360Z,34.23
2022-08-29T11:43:12.730Z,34.33
2022-08-29T11:44:49.958Z,34.43
2022-08-29T11:46:39.053Z,34.59
2022-08-29T11:48:21.684Z,34.73
2022-08-29T11:49:55.522Z,34.82
2022-08-29T11:51:36.236Z,34.81
2022-08-29T11:53:16.867Z,34.45
2022-08-29T11:55:11.054Z,34.18
2022-08-29T11:56:46.551Z,34.20
2022-08-29T11:58:43.596Z,34.10
2022-08-29T12:00:48.923Z,34.06
2022-08-29T12:02:43.502Z,34.02
2022-08-29T12:04:56.068Z,33.90
2022-08-29T12:06:37.916Z,33.78
2022-08-29T12:08:36.003Z,33.81
2022-08-29T12:10:13.928Z,33.66
2022-08-29T12:12:18.305Z,33.68
2022-08-29T12:14:04.694Z,33.58
2022-08-29T12:15:54.653Z,33.53
2022-08-29T12:18:01.336Z,33.53
2022-08-29T12:19:53.472Z,33.48
2022-08-29T12:21:42.381Z,33.56
2022-08-29T12:23:27.693Z,33.64
2022-08-29T12:25:29.571Z,33.68
2022-08-29T12:27:04.117Z,33.73
2022-08-29T12:28:57.359Z,33.81
2022-08-29T12:30:35.894Z,33.86
2022-08-29T12:32:35.519Z,33.83
2022-08-29T12:34:23.335Z,33.82
2022-08-29T12:36:13.964Z,33.83
2022-08-29T12:38:03.337Z,33.92
2022-08-29T12:39:55.745Z,34.01
2022-08-29T12:41:42.608Z,34.07
2022-08-29T12:43:35.507Z,34.17
2022-08-29T12:45:17.385Z,34.22
2022-08-29T12:46:56.136Z,34.32
2022-08-29T12:48:34.394Z,34.42
2022-08-29T12:50:18.026Z,34.54
2022-08-29T12:51:56.215Z,34.72
2022-08-29T12:53:33.457Z,34.83
2022-08-29T12:55:22.970Z,35.00
2022-08-29T12:57:03.719Z,35.02
2022-08-29T12:58:41.477Z,34.92
2022-08-29T13:00:21.674Z,34.92
2022-08-29T13:01:57.596Z,34.94
2022-08-29T13:03:30.868Z,34.89
2022-08-29T13:05:05.951Z,34.88
2022-08-29T13:06:52.381Z,34.86
2022-08-29T13:08:30.456Z,35.02
2022-08-29T13:10:03.764Z,35.08
2022-08-29T13:11:36.910Z,35.19
2022-08-29T13:13:13.536Z,35.30
2022-08-29T13:14:56.766Z,35.36
2022-08-29T13:16:32.835Z,35.35
2022-08-29T13:18:07.080Z,35.33
2022-08-29T13:19:40.995Z,35.04
2022-08-29T13:21:22.381Z,34.97
2022-08-29T13:23:16.757Z,34.87
2022-08-29T13:24:50.137Z,34.79
2022-08-29T13:26:27.970Z,34.66
2022-08-29T13:28:02.032Z,34.67
2022-08-29T13:29:39.008Z,34.64
2022-08-29T13:31:33.337Z,34.54
2022-08-29T13:33:06.921Z,34.51
2022-08-29T13:35:07.346Z,34.37
2022-08-29T13:36:46.698Z,34.17
2022-08-29T13:38:23.962Z,34.19
2022-08-29T13:39:57.363Z,34.11
2022-08-29T13:41:30.226Z,34.16
2022-08-29T13:43:05.939Z,34.22
2022-08-29T13:44:59.344Z,34.26
2022-08-29T13:46:34.136Z,34.33
2022-08-29T13:48:20.558Z,34.37
2022-08-29T13:49:58.891Z,34.39
2022-08-29T13:51:32.338Z,34.38
2022-08-29T13:53:05.540Z,34.32
2022-08-29T13:54:42.476Z,34.32
2022-08-29T13:56:23.416Z,34.27
2022-08-29T13:57:57.330Z,34.25
2022-08-29T13:59:36.919Z,34.14
2022-08-29T14:03:23.111Z,34.07
2022-08-29T14:04:57.115Z,34.04
2022-08-29T14:06:34.116Z,34.05
2022-08-29T14:08:08.170Z,33.94
2022-08-29T14:09:43.082Z,33.87
2022-08-29T14:11:16.435Z,33.81
2022-08-29T14:12:50.068Z,33.71
2022-08-29T14:14:23.358Z,33.72
2022-08-29T14:15:56.650Z,33.76
2022-08-29T14:17:29.060Z,33.77
2022-08-29T14:19:03.919Z,33.80
2022-08-29T14:20:39.180Z,33.84
2022-08-29T14:22:11.697Z,33.84
2022-08-29T14:23:44.881Z,33.86
2022-08-29T14:25:19.901Z,33.91
2022-08-29T14:26:54.082Z,33.91
2022-08-29T14:28:39.785Z,33.84
2022-08-29T14:30:16.651Z,33.75
2022-08-29T14:31:54.209Z,33.75
2022-08-29T14:33:27.406Z,33.74
2022-08-29T14:35:02.165Z,33.74
2022-08-29T14:36:35.567Z,33.70
2022-08-29T14:38:13.240Z,33.65
2022-08-29T14:39:48.501Z,33.47
2022-08-29T14:41:23.340Z,33.47
2022-08-29T14:42:56.713Z,33.49
2022-08-29T14:44:30.031Z,33.50
2022-08-29T14:46:03.278Z,33.56
2022-08-29T14:47:36.587Z,33.57
2022-08-29T14:49:08.791Z,33.57
2022-08-29T14:50:43.832Z,33.57
2022-08-29T14:52:17.118Z,33.56
2022-08-29T14:53:54.626Z,33.58
2022-08-29T14:55:28.172Z,33.60
2022-08-29T14:57:02.024Z,33.56
2022-08-29T14:58:35.275Z,33.49
2022-08-29T15:00:12.968Z,33.42
2022-08-29T15:01:51.329Z,33.39
2022-08-29T15:03:27.707Z,33.32
2022-08-29T15:05:00.933Z,33.31
2022-08-29T15:06:35.530Z,33.27
2022-08-29T15:08:10.453Z,33.23
2022-08-29T15:09:49.110Z,33.19
2022-08-29T15:11:22.379Z,33.15
2022-08-29T15:12:55.872Z,33.10
2022-08-29T15:14:29.126Z,33.00
2022-08-29T15:16:02.694Z,32.95
2022-08-29T15:17:36.239Z,32.88
2022-08-29T15:21:03.798Z,32.68
2022-08-29T15:22:38.508Z,32.63
2022-08-29T15:24:11.778Z,32.59
2022-08-29T15:25:48.819Z,32.47
2022-08-29T15:27:27.749Z,32.40
2022-08-29T15:29:01.188Z,32.31
2022-08-29T15:30:35.207Z,32.29
2022-08-29T15:32:09.182Z,32.23
2022-08-29T15:33:43.219Z,32.11
2022-08-29T15:35:16.692Z,32.02
2022-08-29T15:36:49.986Z,31.89
2022-08-29T15:38:24.641Z,31.84
2022-08-29T15:39:58.474Z,31.84
2022-08-29T15:41:32.532Z,31.79
2022-08-29T15:43:05.997Z,31.75
2022-08-29T15:44:39.892Z,31.69
2022-08-29T15:46:13.363Z,31.64
2022-08-29T15:47:46.701Z,31.60
2022-08-29T15:49:20.943Z,31.60
2022-08-29T15:50:54.370Z,31.58
2022-08-29T15:52:27.790Z,31.53
2022-08-29T15:54:02.835Z,31.40
2022-08-29T15:55:36.065Z,31.36
2022-08-29T15:57:09.351Z,31.32
2022-08-29T15:58:44.073Z,31.31
2022-08-29T16:00:21.570Z,31.31
2022-08-29T16:02:04.743Z,31.28
2022-08-29T16:03:38.105Z,31.26
2022-08-29T16:05:11.539Z,31.24
2022-08-29T16:06:44.821Z,31.18
2022-08-29T16:08:18.794Z,31.16
2022-08-29T16:09:53.675Z,31.13
2022-08-29T16:11:27.390Z,31.09
2022-08-29T16:13:00.931Z,31.07
2022-08-29T16:16:30.153Z,30.99
2022-08-29T16:18:03.850Z,30.98
2022-08-29T16:19:37.279Z,30.93
2022-08-29T16:21:12.455Z,30.80
2022-08-29T16:22:46.168Z,30.80
2022-08-29T16:24:21.876Z,30.82
2022-08-29T16:25:56.537Z,30.79
2022-08-29T16:27:28.929Z,30.78
2022-08-29T16:29:02.429Z,30.77
2022-08-29T16:30:44.134Z,30.77
2022-08-29T16:32:19.287Z,30.72
2022-08-29T16:33:52.577Z,30.65
2022-08-29T16:35:26.422Z,30.59
2022-08-29T16:37:01.438Z,30.59
2022-08-29T16:38:36.106Z,30.57
2022-08-29T16:40:24.230Z,30.52
2022-08-29T16:42:30.345Z,30.44
2022-08-29T16:44:23.185Z,30.40
2022-08-29T16:46:09.500Z,30.31
2022-08-29T16:47:49.130Z,30.20
2022-08-29T16:49:37.207Z,30.12
2022-08-29T16:51:19.419Z,30.05
2022-08-29T16:53:20.278Z,30.02
2022-08-29T16:55:15.198Z,29.93
2022-08-29T16:57:01.369Z,29.85
2022-08-29T16:59:00.199Z,29.80
2022-08-29T17:00:47.246Z,29.81
2022-08-29T17:02:27.513Z,29.78
2022-08-29T17:04:22.632Z,29.69
2022-08-29T17:06:09.232Z,29.64
2022-08-29T17:08:08.280Z,29.64
2022-08-29T17:09:54.057Z,29.60
2022-08-29T17:11:46.373Z,29.54
2022-08-29T17:13:25.129Z,29.53
2022-08-29T17:15:19.206Z,29.50
2022-08-29T17:17:07.427Z,29.49
2022-08-29T17:18:53.408Z,29.40
2022-08-29T17:20:37.330Z,29.27
2022-08-29T17:22:24.431Z,29.12
2022-08-29T17:24:06.783Z,29.04
2022-08-29T17:26:06.220Z,29.02
2022-08-29T17:28:17.199Z,28.87
2022-08-29T17:30:04.881Z,28.83
2022-08-29T17:31:46.581Z,28.65
2022-08-29T17:33:33.287Z,28.51
2022-08-29T17:35:15.500Z,28.43
2022-08-29T17:37:08.229Z,28.32
2022-08-29T17:38:56.337Z,28.12
2022-08-29T17:40:57.230Z,28.12
2022-08-29T17:42:44.436Z,28.05
2022-08-29T17:44:38.344Z,27.99
2022-08-29T17:46:25.303Z,27.93
2022-08-29T17:48:13.490Z,27.83
2022-08-29T17:49:53.054Z,27.78
2022-08-29T17:51:39.227Z,27.73
2022-08-29T17:53:26.422Z,27.72
2022-08-29T17:55:15.403Z,27.69
2022-08-29T17:57:04.222Z,27.63
2022-08-29T17:58:58.254Z,27.56
2022-08-29T18:00:38.566Z,27.52
2022-08-29T18:02:31.280Z,27.50
2022-08-29T18:04:12.633Z,27.48
2022-08-29T18:06:05.398Z,27.47
2022-08-29T18:07:45.830Z,27.45
2022-08-29T18:09:39.248Z,27.42
2022-08-29T18:11:26.401Z,27.40
2022-08-29T18:13:12.512Z,27.42
2022-08-29T18:14:58.506Z,27.40
2022-08-29T18:16:45.412Z,27.33
2022-08-29T18:18:25.259Z,27.24
2022-08-29T18:20:22.242Z,27.19
2022-08-29T18:22:08.478Z,27.11
2022-08-29T18:23:55.495Z,27.05
2022-08-29T18:25:35.662Z,26.93
2022-08-29T18:27:22.391Z,26.91
2022-08-29T18:29:02.495Z,26.83
2022-08-29T18:30:56.319Z,26.74
2022-08-29T18:32:43.473Z,26.71
2022-08-29T18:34:43.280Z,26.66
2022-08-29T18:36:32.982Z,26.61
2022-08-29T18:38:25.420Z,26.59
2022-08-29T18:40:06.468Z,26.56
2022-08-29T18:42:13.550Z,26.55
2022-08-29T18:44:17.407Z,26.50
2022-08-29T18:46:04.594Z,26.53
2022-08-29T18:47:44.320Z,26.55
2022-08-29T18:49:51.409Z,26.53
2022-08-29T18:51:31.559Z,26.51
2022-08-29T18:53:36.292Z,26.44
2022-08-29T18:55:30.483Z,26.37
2022-08-29T18:57:17.536Z,26.36
2022-08-29T18:58:58.862Z,26.36
2022-08-29T19:00:46.660Z,26.38
2022-08-29T19:02:27.014Z,26.35
2022-08-29T19:04:23.470Z,26.22
2022-08-29T19:06:12.510Z,26.01
2022-08-29T19:08:13.287Z,25.94
2022-08-29T19:10:01.479Z,25.89
2022-08-29T19:11:54.473Z,25.86
2022-08-29T19:13:35.132Z,25.89
2022-08-29T19:15:29.356Z,25.83
2022-08-29T19:17:15.690Z,25.86
2022-08-29T19:19:01.599Z,25.79
2022-08-29T19:20:59.162Z,25.78
2022-08-29T19:22:46.399Z,25.73
2022-08-29T19:24:33.344Z,25.75
2022-08-29T19:26:38.321Z,25.70
2022-08-29T19:28:26.030Z,25.70
2022-08-29T19:30:19.353Z,25.62
2022-08-29T19:31:59.310Z,25.42
2022-08-29T19:33:52.333Z,25.38
2022-08-29T19:35:38.359Z,25.31
2022-08-29T19:37:32.345Z,25.25
2022-08-29T19:39:12.185Z,25.19
2022-08-29T19:41:06.346Z,25.15
2022-08-29T19:42:48.488Z,25.07
2022-08-29T19:44:41.445Z,25.05
2022-08-29T19:46:23.685Z,24.97
2022-08-29T19:48:17.322Z,24.96
2022-08-29T19:50:03.604Z,25.00
2022-08-29T19:51:49.583Z,24.98
2022-08-29T19:53:35.343Z,25.03
2022-08-29T19:55:32.359Z,25.03
2022-08-29T19:57:19.373Z,25.03
2022-08-29T19:59:07.567Z,25.06
2022-08-29T20:00:47.453Z,25.07
2022-08-29T20:02:33.439Z,25.06
2022-08-29T20:04:13.595Z,25.10
2022-08-29T20:06:12.451Z,25.12
2022-08-29T20:08:00.408Z,25.06
2022-08-29T20:10:00.406Z,25.11
2022-08-29T20:11:48.664Z,25.12
2022-08-29T20:13:47.572Z,25.14
2022-08-29T20:15:32.266Z,25.16
2022-08-29T20:17:25.527Z,25.08
2022-08-29T20:19:16.362Z,25.02
2022-08-29T20:21:02.603Z,24.91
2022-08-29T20:22:42.556Z,24.82
2022-08-29T20:24:30.373Z,24.82
2022-08-29T20:26:09.620Z,24.83
2022-08-29T20:28:02.448Z,24.78
2022-08-29T20:29:49.408Z,24.75
2022-08-29T20:31:51.428Z,24.70
2022-08-29T20:33:41.286Z,24.66
2022-08-29T20:35:58.415Z,24.68
2022-08-29T20:37:38.187Z,24.73
2022-08-29T20:39:33.514Z,24.71
2022-08-29T20:41:21.259Z,24.67
2022-08-29T20:43:07.629Z,24.62
2022-08-29T20:44:48.685Z,24.42
2022-08-29T20:46:35.459Z,24.37
2022-08-29T20:48:16.862Z,24.38
2022-08-29T20:50:09.675Z,24.34
2022-08-29T20:51:56.398Z,24.27
2022-08-29T20:53:56.407Z,24.27
2022-08-29T20:55:43.569Z,24.26
2022-08-29T20:57:36.418Z,24.21
2022-08-29T20:59:16.660Z,24.18
2022-08-29T21:01:09.547Z,24.15
2022-08-29T21:03:14.621Z,24.12
2022-08-29T21:05:20.149Z,24.13
2022-08-29T21:07:04.590Z,24.13
2022-08-29T21:08:51.412Z,24.13
2022-08-29T21:10:32.058Z,24.13
2022-08-29T21:12:27.507Z,24.17
2022-08-29T21:14:14.506Z,24.17
2022-08-29T21:16:15.487Z,24.18
2022-08-29T21:18:02.969Z,24.25
2022-08-29T21:19:56.420Z,24.20
2022-08-29T21:21:44.432Z,24.14
2022-08-29T21:23:31.725Z,24.11
2022-08-29T21:25:11.591Z,24.02
2022-08-29T21:26:58.560Z,23.94
2022-08-29T21:28:47.226Z,23.85
2022-08-29T21:30:47.440Z,23.80